createdAt,value
2019-02-19T00:01:36.300Z,0.90
2019-02-19T00:04:04.109Z,0.80
2019-02-19T00:06:31.929Z,0.70
2019-02-19T00:08:59.771Z,0.70
2019-02-19T00:11:27.744Z,0.60
2019-02-19T00:13:55.568Z,0.60
2019-02-19T00:16:23.383Z,0.60
2019-02-19T00:18:51.225Z,0.60
2019-02-19T00:21:19.009Z,0.50
2019-02-19T00:23:46.849Z,0.50
2019-02-19T00:26:17.160Z,0.40
2019-02-19T00:28:45.023Z,0.30
2019-02-19T00:31:12.852Z,0.30
2019-02-19T00:33:40.671Z,0.20
2019-02-19T00:36:08.483Z,0.20
2019-02-19T00:38:36.249Z,0.60
2019-02-19T00:41:04.121Z,0.70
2019-02-19T00:43:32.383Z,0.20
2019-02-19T00:46:00.218Z,0.20
2019-02-19T00:48:28.126Z,-0.40
2019-02-19T00:51:15.368Z,-0.20
2019-02-19T00:53:43.161Z,0.20
2019-02-19T00:56:10.979Z,0.20
2019-02-19T00:58:38.790Z,0.80
2019-02-19T01:01:06.590Z,0.20
2019-02-19T01:03:34.441Z,0.30
2019-02-19T01:06:04.256Z,0.20
2019-02-19T01:08:32.113Z,0.10
2019-02-19T01:10:59.901Z,0.10
2019-02-19T01:13:27.737Z,0.00
2019-02-19T01:15:55.709Z,0.00
2019-02-19T01:18:23.496Z,0.20
2019-02-19T01:20:51.296Z,0.10
2019-02-19T01:23:19.116Z,0.20
2019-02-19T01:25:46.933Z,0.10
2019-02-19T01:28:14.754Z,0.10
2019-02-19T01:30:47.781Z,0.10
2019-02-19T01:33:15.632Z,0.10
2019-02-19T01:35:43.460Z,0.00
2019-02-19T01:38:11.259Z,0.50
2019-02-19T01:40:39.148Z,0.10
2019-02-19T01:43:06.995Z,0.00
2019-02-19T01:45:47.101Z,0.50
2019-02-19T01:48:14.906Z,0.10
2019-02-19T01:50:42.703Z,0.30
2019-02-19T01:53:10.490Z,-0.10
2019-02-19T01:55:38.256Z,-0.10
2019-02-19T01:58:06.110Z,-0.10
2019-02-19T02:00:33.932Z,0.10
2019-02-19T02:03:01.706Z,-0.10
2019-02-19T02:05:29.519Z,0.10
2019-02-19T02:07:57.362Z,-0.20
2019-02-19T02:10:25.199Z,0.20
2019-02-19T02:12:53.009Z,-0.10
2019-02-19T02:15:20.787Z,-0.10
2019-02-19T02:17:48.561Z,0.30
2019-02-19T02:20:16.630Z,-0.30
2019-02-19T02:22:44.496Z,-0.30
2019-02-19T02:25:12.271Z,-0.20
2019-02-19T02:27:40.017Z,-0.30
2019-02-19T02:30:08.161Z,-0.30
2019-02-19T02:32:35.982Z,-0.30
2019-02-19T02:35:03.924Z,-0.30
2019-02-19T02:37:31.756Z,-0.60
2019-02-19T02:39:59.604Z,-0.40
2019-02-19T02:42:27.439Z,-0.40
2019-02-19T02:44:55.238Z,-0.50
2019-02-19T02:47:23.091Z,-0.50
2019-02-19T02:49:51.012Z,-0.50
2019-02-19T02:52:18.875Z,-0.50
2019-02-19T02:54:46.634Z,-0.60
2019-02-19T02:57:14.488Z,-0.50
2019-02-19T02:59:42.308Z,-0.10
2019-02-19T03:02:10.150Z,-0.20
2019-02-19T03:04:37.948Z,-0.40
2019-02-19T03:07:23.996Z,0.20
2019-02-19T03:09:51.958Z,-0.30
2019-02-19T03:12:19.785Z,-0.20
2019-02-19T03:14:47.584Z,-0.10
2019-02-19T03:17:15.516Z,0.00
2019-02-19T03:19:53.386Z,0.10
2019-02-19T03:22:21.195Z,0.10
2019-02-19T03:24:49.026Z,0.10
2019-02-19T03:27:16.827Z,0.10
2019-02-19T03:29:44.727Z,0.10
2019-02-19T03:32:12.505Z,0.10
2019-02-19T03:34:40.341Z,0.50
2019-02-19T03:37:08.112Z,0.10
2019-02-19T03:39:36.195Z,0.20
2019-02-19T03:42:03.999Z,0.20
2019-02-19T03:44:31.812Z,0.20
2019-02-19T03:46:59.611Z,0.20
2019-02-19T03:50:03.349Z,0.10
2019-02-19T03:52:31.170Z,0.00
2019-02-19T03:54:58.954Z,0.30
2019-02-19T03:57:26.777Z,0.60
2019-02-19T03:59:54.571Z,0.10
2019-02-19T04:02:22.463Z,0.20
2019-02-19T04:04:50.305Z,0.10
2019-02-19T04:07:18.091Z,0.20
2019-02-19T04:09:45.960Z,0.20
2019-02-19T04:12:13.740Z,0.10
2019-02-19T04:14:41.553Z,0.10
2019-02-19T04:17:09.339Z,0.10
2019-02-19T04:19:37.167Z,0.40
2019-02-19T04:22:04.976Z,0.10
2019-02-19T04:24:32.807Z,0.20
2019-02-19T04:27:00.636Z,0.70
2019-02-19T04:29:28.434Z,0.30
2019-02-19T04:31:56.226Z,0.50
2019-02-19T04:34:24.032Z,0.60
2019-02-19T04:36:51.826Z,0.30
2019-02-19T04:39:19.624Z,0.30
2019-02-19T04:41:47.432Z,0.40
2019-02-19T04:44:15.227Z,0.20
2019-02-19T04:46:43.068Z,0.10
2019-02-19T04:49:26.072Z,0.20
2019-02-19T04:51:53.895Z,0.20
2019-02-19T04:54:41.131Z,0.10
2019-02-19T04:57:08.934Z,0.70
2019-02-19T04:59:36.791Z,0.10
2019-02-19T05:02:04.578Z,0.10
2019-02-19T05:04:32.392Z,0.20
2019-02-19T05:07:00.202Z,0.80
2019-02-19T05:09:28.431Z,0.20
2019-02-19T05:11:56.231Z,0.10
2019-02-19T05:14:24.029Z,0.10
2019-02-19T05:16:51.923Z,-0.10
2019-02-19T05:19:24.754Z,-0.20
2019-02-19T05:21:52.582Z,-0.20
2019-02-19T05:24:20.360Z,-0.10
2019-02-19T05:26:48.220Z,-0.30
2019-02-19T05:29:20.997Z,-0.40
2019-02-19T05:31:48.826Z,-0.50
2019-02-19T05:34:36.061Z,-0.10
2019-02-19T05:37:03.819Z,-0.40
2019-02-19T05:39:31.720Z,-0.50
2019-02-19T05:41:59.575Z,-0.50
2019-02-19T05:44:27.453Z,-0.50
2019-02-19T05:46:55.264Z,-0.50
2019-02-19T05:49:23.216Z,-0.50
2019-02-19T05:51:51.034Z,0.00
2019-02-19T05:54:18.950Z,-0.50
2019-02-19T05:56:46.791Z,-0.60
2019-02-19T05:59:14.620Z,-0.50
2019-02-19T06:01:42.465Z,-0.40
2019-02-19T06:04:10.296Z,-0.20
2019-02-19T06:06:38.150Z,0.20
2019-02-19T06:09:05.981Z,0.10
2019-02-19T06:11:33.763Z,0.00
2019-02-19T06:14:21.029Z,-0.10
2019-02-19T06:16:58.103Z,0.80
2019-02-19T06:19:39.692Z,0.00
2019-02-19T06:22:07.545Z,-0.20
2019-02-19T06:24:35.378Z,-0.10
2019-02-19T06:27:17.148Z,-0.10
2019-02-19T06:29:45.352Z,-0.10
2019-02-19T06:32:13.165Z,-0.20
2019-02-19T06:34:41.356Z,0.30
2019-02-19T06:37:09.129Z,0.10
2019-02-19T06:39:37.045Z,-0.10
2019-02-19T06:42:04.854Z,0.00
2019-02-19T06:44:32.696Z,0.10
2019-02-19T06:47:06.670Z,0.10
2019-02-19T06:49:49.952Z,0.40
2019-02-19T06:52:17.733Z,0.40
2019-02-19T06:54:45.554Z,0.20
2019-02-19T06:57:13.367Z,0.20
2019-02-19T06:59:41.212Z,0.20
2019-02-19T07:02:24.719Z,0.20
2019-02-19T07:04:55.768Z,0.60
2019-02-19T07:07:23.601Z,0.10
2019-02-19T07:09:56.662Z,0.40
2019-02-19T07:12:24.491Z,0.30
2019-02-19T07:14:52.313Z,0.40
2019-02-19T07:17:20.123Z,0.40
2019-02-19T07:19:47.992Z,0.60
2019-02-19T07:22:15.752Z,0.40
2019-02-19T07:24:43.590Z,0.60
2019-02-19T07:27:11.443Z,0.60
2019-02-19T07:29:39.370Z,0.60
2019-02-19T07:32:07.199Z,0.80
2019-02-19T07:34:35.096Z,0.90
2019-02-19T07:37:02.913Z,0.90
2019-02-19T07:39:30.757Z,1.00
2019-02-19T07:41:58.515Z,1.50
2019-02-19T07:44:26.350Z,0.90
2019-02-19T07:46:54.180Z,0.80
2019-02-19T07:49:23.173Z,0.80
2019-02-19T07:51:51.249Z,1.30
2019-02-19T07:54:19.028Z,1.10
2019-02-19T07:56:46.834Z,0.90
2019-02-19T07:59:14.607Z,1.00
2019-02-19T08:01:42.411Z,1.60
2019-02-19T08:04:10.219Z,1.50
2019-02-19T08:06:38.007Z,1.10
2019-02-19T08:09:11.652Z,1.30
2019-02-19T08:11:39.944Z,1.30
2019-02-19T08:14:09.024Z,1.60
2019-02-19T08:16:39.777Z,1.40
2019-02-19T08:19:08.271Z,1.60
2019-02-19T08:21:36.061Z,1.60
2019-02-19T08:24:07.210Z,1.70
2019-02-19T08:26:35.027Z,1.80
2019-02-19T08:29:13.030Z,2.10
2019-02-19T08:31:32.542Z,2.10
2019-02-19T08:34:00.364Z,2.30
2019-02-19T08:36:29.703Z,2.20
2019-02-19T08:38:57.800Z,2.30
2019-02-19T08:41:25.652Z,2.60
2019-02-19T08:43:53.518Z,2.40
2019-02-19T08:46:21.301Z,2.50
2019-02-19T08:48:49.145Z,2.80
2019-02-19T08:51:16.942Z,2.60
2019-02-19T08:53:44.713Z,2.50
2019-02-19T08:56:12.627Z,2.40
2019-02-19T08:58:40.448Z,2.80
2019-02-19T09:01:13.434Z,3.00
2019-02-19T09:03:41.237Z,2.40
2019-02-19T09:06:28.875Z,2.40
2019-02-19T09:08:56.666Z,2.80
2019-02-19T09:11:24.478Z,2.50
2019-02-19T09:13:52.297Z,2.50
2019-02-19T09:16:20.093Z,2.40
2019-02-19T09:18:47.928Z,2.90
2019-02-19T09:21:16.595Z,2.30
2019-02-19T09:23:44.434Z,2.70
2019-02-19T09:26:12.260Z,2.40
2019-02-19T09:28:40.099Z,2.60
2019-02-19T09:31:07.913Z,2.80
2019-02-19T09:33:35.762Z,2.90
2019-02-19T09:36:03.664Z,3.00
2019-02-19T09:38:31.516Z,2.90
2019-02-19T09:40:59.286Z,3.00
2019-02-19T09:43:35.127Z,3.00
2019-02-19T09:45:58.889Z,3.00
2019-02-19T09:48:26.547Z,3.30
2019-02-19T09:50:55.449Z,3.10
2019-02-19T09:53:23.309Z,3.70
2019-02-19T09:55:51.282Z,3.40
2019-02-19T09:58:19.137Z,3.50
2019-02-19T10:00:46.927Z,3.60
2019-02-19T10:03:15.484Z,4.00
2019-02-19T10:05:43.302Z,3.60
2019-02-19T10:08:11.156Z,3.60
2019-02-19T10:10:38.937Z,3.70
2019-02-19T10:13:06.696Z,3.80
2019-02-19T10:15:34.476Z,3.90
2019-02-19T10:18:09.970Z,3.80
2019-02-19T10:20:37.225Z,3.80
2019-02-19T10:23:05.001Z,3.90
2019-02-19T10:25:32.870Z,3.90
2019-02-19T10:28:00.679Z,3.90
2019-02-19T10:30:28.472Z,4.00
2019-02-19T10:32:56.317Z,4.20
2019-02-19T10:35:24.579Z,4.20
2019-02-19T10:37:52.509Z,4.30
2019-02-19T10:40:30.383Z,4.30
2019-02-19T10:42:58.288Z,4.30
2019-02-19T10:45:26.202Z,4.30
2019-02-19T10:47:54.057Z,4.30
2019-02-19T10:50:23.664Z,4.20
2019-02-19T10:52:53.159Z,4.20
2019-02-19T10:55:23.519Z,4.20
2019-02-19T10:57:54.082Z,4.10
2019-02-19T11:00:23.029Z,4.00
2019-02-19T11:02:50.832Z,4.20
2019-02-19T11:05:18.713Z,3.90
2019-02-19T11:07:46.582Z,3.90
2019-02-19T11:10:45.098Z,3.80
2019-02-19T11:13:12.926Z,3.80
2019-02-19T11:15:40.743Z,3.90
2019-02-19T11:18:08.624Z,3.80
2019-02-19T11:20:36.416Z,3.80
2019-02-19T11:23:04.199Z,3.80
2019-02-19T11:25:32.048Z,3.80
2019-02-19T11:27:59.912Z,3.90
2019-02-19T11:30:58.257Z,4.00
2019-02-19T11:33:26.031Z,4.10
2019-02-19T11:35:54.861Z,4.10
2019-02-19T11:38:22.998Z,4.10
2019-02-19T11:41:31.186Z,4.10
2019-02-19T11:43:59.014Z,4.20
2019-02-19T11:46:26.914Z,4.20
2019-02-19T11:48:56.191Z,4.30
2019-02-19T11:51:24.344Z,4.40
2019-02-19T11:53:52.194Z,4.50
2019-02-19T11:56:20.004Z,4.50
2019-02-19T11:58:47.791Z,4.50
2019-02-19T12:01:15.638Z,4.50
2019-02-19T12:03:43.448Z,4.70
2019-02-19T12:06:32.774Z,4.70
2019-02-19T12:09:55.555Z,4.60
2019-02-19T12:12:23.383Z,4.70
2019-02-19T12:14:51.192Z,4.70
2019-02-19T12:17:18.970Z,4.70
2019-02-19T12:19:46.748Z,4.80
2019-02-19T12:22:15.785Z,4.80
2019-02-19T12:24:43.609Z,4.90
2019-02-19T12:27:11.467Z,4.90
2019-02-19T12:29:39.245Z,4.90
2019-02-19T12:32:09.883Z,5.10
2019-02-19T12:34:37.689Z,5.00
2019-02-19T12:37:08.640Z,5.20
2019-02-19T12:39:36.475Z,5.30
2019-02-19T12:42:04.322Z,5.70
2019-02-19T12:44:32.100Z,5.50
2019-02-19T12:46:59.936Z,5.60
2019-02-19T12:49:27.872Z,5.50
2019-02-19T12:51:55.737Z,5.70
2019-02-19T12:54:23.570Z,5.90
2019-02-19T12:56:51.378Z,5.70
2019-02-19T12:59:19.203Z,6.20
2019-02-19T13:01:46.999Z,6.40
2019-02-19T13:04:14.875Z,6.80
2019-02-19T13:06:42.673Z,7.00
2019-02-19T13:09:11.054Z,7.20
2019-02-19T13:11:38.812Z,7.30
2019-02-19T13:14:06.692Z,7.30
2019-02-19T13:16:34.533Z,7.50
2019-02-19T13:19:03.744Z,8.50
2019-02-19T13:21:33.501Z,9.50
2019-02-19T13:24:01.373Z,10.40
2019-02-19T13:26:29.238Z,11.30
2019-02-19T13:28:57.062Z,12.10
2019-02-19T13:31:24.889Z,12.80
2019-02-19T13:33:52.688Z,13.20
2019-02-19T13:36:20.561Z,13.90
2019-02-19T13:38:48.349Z,14.00
2019-02-19T13:41:21.435Z,13.60
2019-02-19T13:43:49.213Z,13.50
2019-02-19T13:46:17.082Z,13.20
2019-02-19T13:48:44.883Z,12.90
2019-02-19T13:51:12.735Z,12.60
2019-02-19T13:53:46.876Z,12.30
2019-02-19T13:56:14.670Z,12.00
2019-02-19T13:58:42.455Z,11.90
2019-02-19T14:01:25.403Z,11.70
2019-02-19T14:03:53.223Z,11.50
2019-02-19T14:06:21.001Z,11.50
2019-02-19T14:08:48.783Z,11.50
2019-02-19T14:11:16.592Z,11.50
2019-02-19T14:13:51.803Z,11.50
2019-02-19T14:16:24.318Z,11.30
2019-02-19T14:18:53.688Z,11.50
2019-02-19T14:21:38.933Z,11.50
2019-02-19T14:24:44.276Z,11.50
2019-02-19T14:27:34.778Z,12.00
2019-02-19T14:30:40.073Z,12.70
2019-02-19T14:33:26.054Z,13.80
2019-02-19T14:36:22.571Z,14.10
2019-02-19T14:39:08.535Z,14.20
2019-02-19T14:41:58.423Z,14.40
2019-02-19T14:44:40.383Z,14.20
2019-02-19T14:47:26.314Z,13.90
2019-02-19T14:50:20.012Z,13.10
2019-02-19T14:53:16.239Z,12.50
2019-02-19T14:56:09.452Z,12.20
2019-02-19T14:59:02.597Z,11.70
2019-02-19T15:01:49.994Z,11.40
2019-02-19T15:04:39.874Z,11.10
2019-02-19T15:07:18.222Z,10.70
2019-02-19T15:10:08.586Z,10.40
2019-02-19T15:12:48.544Z,10.30
2019-02-19T15:15:34.304Z,10.10
2019-02-19T15:18:20.208Z,10.10
2019-02-19T15:20:56.719Z,10.00
2019-02-19T15:23:33.574Z,9.90
2019-02-19T15:26:08.369Z,9.90
2019-02-19T15:32:00.286Z,9.80
2019-02-19T15:34:56.832Z,9.90
2019-02-19T15:37:44.401Z,9.80
2019-02-19T15:40:36.763Z,9.80
2019-02-19T15:43:24.152Z,9.90
2019-02-19T15:46:10.568Z,9.80
2019-02-19T15:48:58.355Z,9.70
2019-02-19T15:51:38.470Z,9.70
2019-02-19T15:54:19.634Z,9.60
2019-02-19T15:57:06.593Z,9.80
2019-02-19T16:00:00.102Z,9.60
2019-02-19T16:02:47.661Z,9.60
2019-02-19T16:05:31.775Z,9.40
2019-02-19T16:08:11.908Z,9.70
2019-02-19T16:11:06.695Z,9.20
2019-02-19T16:13:42.021Z,9.30
2019-02-19T16:16:28.037Z,9.10
2019-02-19T16:19:06.794Z,9.00
2019-02-19T16:21:56.733Z,9.00
2019-02-19T16:24:59.372Z,8.50
2019-02-19T16:27:39.872Z,8.80
2019-02-19T16:30:48.116Z,8.80
2019-02-19T16:33:53.828Z,8.80
2019-02-19T16:36:44.046Z,8.70
2019-02-19T16:39:29.715Z,8.40
2019-02-19T16:42:14.770Z,8.30
2019-02-19T16:44:52.159Z,8.00
2019-02-19T16:47:36.270Z,7.90
2019-02-19T16:50:35.255Z,7.80
2019-02-19T16:53:25.591Z,7.70
2019-02-19T16:56:31.167Z,7.40
2019-02-19T16:59:16.959Z,7.40
2019-02-19T17:01:54.743Z,7.30
2019-02-19T17:04:42.126Z,7.20
2019-02-19T17:07:24.629Z,7.00
2019-02-19T17:10:04.433Z,6.90
2019-02-19T17:13:03.853Z,6.80
2019-02-19T17:15:51.222Z,6.70
2019-02-19T17:18:44.846Z,6.60
2019-02-19T17:21:23.563Z,6.00
2019-02-19T17:24:10.995Z,6.40
2019-02-19T17:27:04.673Z,6.30
2019-02-19T17:29:38.261Z,6.20
2019-02-19T17:32:31.713Z,6.10
2019-02-19T17:35:15.551Z,6.00
2019-02-19T17:37:52.471Z,5.90
2019-02-19T17:40:38.519Z,5.80
2019-02-19T17:43:32.918Z,5.70
2019-02-19T17:46:13.282Z,5.70
2019-02-19T17:48:59.567Z,5.60
2019-02-19T17:51:37.278Z,5.60
2019-02-19T17:54:30.524Z,5.50
2019-02-19T17:57:24.764Z,5.40
2019-02-19T18:00:21.340Z,5.40
2019-02-19T18:03:17.832Z,5.30
2019-02-19T18:05:56.193Z,5.30
2019-02-19T18:08:30.778Z,5.20
2019-02-19T18:11:20.961Z,5.10
2019-02-19T18:14:08.473Z,5.00
2019-02-19T18:16:43.411Z,4.90
2019-02-19T18:19:11.236Z,4.80
2019-02-19T18:21:39.045Z,4.60
2019-02-19T18:24:06.901Z,4.60
2019-02-19T18:26:34.684Z,4.50
2019-02-19T18:29:02.546Z,4.50
2019-02-19T18:31:32.247Z,4.50
2019-02-19T18:34:00.122Z,4.40
2019-02-19T18:36:27.910Z,4.40
2019-02-19T18:38:55.718Z,4.50
2019-02-19T18:41:23.549Z,4.20
2019-02-19T18:43:51.391Z,4.10
2019-02-19T18:46:19.286Z,3.90
2019-02-19T18:48:48.786Z,3.90
2019-02-19T18:51:16.768Z,3.80
2019-02-19T18:53:44.596Z,3.80
2019-02-19T18:56:12.475Z,3.80
2019-02-19T18:58:40.400Z,3.80
2019-02-19T19:01:08.677Z,3.60
2019-02-19T19:03:36.940Z,3.60
2019-02-19T19:06:04.756Z,3.50
2019-02-19T19:08:52.069Z,3.40
2019-02-19T19:11:20.594Z,3.70
2019-02-19T19:13:48.528Z,3.30
2019-02-19T19:16:19.559Z,3.30
2019-02-19T19:18:48.544Z,3.50
2019-02-19T19:21:16.329Z,3.10
2019-02-19T19:23:45.771Z,3.10
2019-02-19T19:26:13.687Z,3.10
2019-02-19T19:28:41.549Z,3.30
2019-02-19T19:31:09.629Z,3.00
2019-02-19T19:33:37.498Z,3.00
2019-02-19T19:36:05.311Z,3.00
2019-02-19T19:38:33.172Z,2.90
2019-02-19T19:41:02.052Z,2.80
2019-02-19T19:43:30.614Z,2.80
2019-02-19T19:45:58.478Z,2.80
2019-02-19T19:48:26.749Z,2.70
2019-02-19T19:50:55.330Z,2.60
2019-02-19T19:53:24.033Z,2.60
2019-02-19T19:55:52.441Z,2.50
2019-02-19T19:58:20.825Z,2.30
2019-02-19T20:00:52.831Z,2.40
2019-02-19T20:03:21.137Z,2.40
2019-02-19T20:05:49.786Z,2.30
2019-02-19T20:08:18.500Z,2.30
2019-02-19T20:10:49.030Z,2.30
2019-02-19T20:13:17.269Z,2.20
2019-02-19T20:15:45.683Z,2.20
2019-02-19T20:18:14.741Z,2.20
2019-02-19T20:20:43.862Z,2.10
2019-02-19T20:23:12.094Z,2.10
2019-02-19T20:25:40.291Z,2.10
2019-02-19T20:28:09.233Z,2.70
2019-02-19T20:30:42.928Z,2.10
2019-02-19T20:33:11.186Z,2.00
2019-02-19T20:35:39.630Z,2.10
2019-02-19T20:38:08.085Z,2.00
2019-02-19T20:40:41.537Z,1.90
2019-02-19T20:43:10.206Z,1.90
2019-02-19T20:45:38.360Z,1.90
2019-02-19T20:48:06.795Z,1.80
2019-02-19T20:50:35.008Z,1.70
2019-02-19T20:53:22.523Z,1.70
2019-02-19T20:55:50.701Z,2.30
2019-02-19T20:58:19.036Z,1.70
2019-02-19T21:00:47.298Z,1.60
2019-02-19T21:03:15.596Z,1.30
2019-02-19T21:05:44.005Z,1.50
2019-02-19T21:08:12.793Z,1.50
2019-02-19T21:10:41.180Z,1.50
2019-02-19T21:13:09.633Z,1.50
2019-02-19T21:15:37.962Z,1.40
2019-02-19T21:18:06.531Z,1.30
2019-02-19T21:20:34.826Z,1.20
2019-02-19T21:23:03.100Z,1.20
2019-02-19T21:25:31.520Z,1.10
2019-02-19T21:27:59.738Z,1.10
2019-02-19T21:30:33.403Z,1.10
2019-02-19T21:33:01.480Z,1.10
2019-02-19T21:35:29.809Z,1.30
2019-02-19T21:37:58.186Z,1.20
2019-02-19T21:40:26.445Z,1.20
2019-02-19T21:42:54.564Z,1.20
2019-02-19T21:45:22.874Z,1.30
2019-02-19T21:47:51.304Z,1.50
2019-02-19T21:50:20.364Z,1.30
2019-02-19T21:52:48.495Z,1.20
2019-02-19T21:55:16.671Z,1.10
2019-02-19T21:57:44.864Z,1.10
2019-02-19T22:00:23.381Z,1.00
2019-02-19T22:02:51.692Z,1.10
2019-02-19T22:05:19.837Z,1.10
2019-02-19T22:07:47.989Z,1.10
2019-02-19T22:10:31.557Z,1.00
2019-02-19T22:12:59.794Z,1.00
2019-02-19T22:15:28.023Z,1.00
2019-02-19T22:17:56.238Z,1.00
2019-02-19T22:20:39.798Z,1.00
2019-02-19T22:23:08.143Z,1.00
2019-02-19T22:25:36.451Z,1.00
2019-02-19T22:28:04.586Z,1.00
2019-02-19T22:30:37.161Z,1.00
2019-02-19T22:33:05.552Z,0.90
2019-02-19T22:35:33.899Z,0.90
2019-02-19T22:38:02.253Z,0.90
2019-02-19T22:40:55.260Z,0.90
2019-02-19T22:43:20.254Z,1.40
2019-02-19T22:45:48.093Z,0.80
2019-02-19T22:48:15.870Z,0.80
2019-02-19T22:50:43.723Z,0.80
2019-02-19T22:53:29.871Z,0.70
2019-02-19T22:56:03.769Z,0.70
2019-02-19T22:58:31.754Z,1.10
2019-02-19T23:01:10.231Z,0.60
2019-02-19T23:03:38.839Z,0.60
2019-02-19T23:06:07.384Z,0.60
2019-02-19T23:08:35.144Z,0.50
2019-02-19T23:11:03.009Z,0.70
2019-02-19T23:13:31.033Z,0.50
2019-02-19T23:15:58.900Z,0.80
2019-02-19T23:18:26.694Z,0.40
2019-02-19T23:20:54.522Z,0.60
2019-02-19T23:23:41.749Z,0.30
2019-02-19T23:26:09.581Z,1.00
2019-02-19T23:28:37.410Z,0.30
2019-02-19T23:31:05.369Z,0.50
2019-02-19T23:33:33.178Z,0.30
2019-02-19T23:36:12.318Z,0.20
2019-02-19T23:38:40.172Z,0.40
2019-02-19T23:41:13.063Z,0.20
2019-02-19T23:43:40.879Z,0.20
2019-02-19T23:46:08.718Z,0.20
2019-02-19T23:48:56.232Z,0.10
2019-02-19T23:51:24.085Z,0.80
2019-02-19T23:53:51.915Z,0.00
2019-02-19T23:56:19.747Z,-0.10
2019-02-19T23:58:47.557Z,-0.10
